Butte, MT

11:20 AM MST on February 20, 2017 (GMT -0700)
Mooney | | Change Station

Elev 5545 ft 45.95 °N, 112.50 °W | Updated 27 minutes ago

Partly Cloudy
Partly Cloudy
39 °F
Feels Like 30 °F
N
17
Wind Variable Wind from South
Gusts 23 mph

Today
High -- | Low -- °F
--% Chance of Precip.
Yesterday
High -- | Low -- °F
Precip. -- in
Pressure 29.72 in
Visibility 10.0 miles
Clouds Scattered Clouds 9000 ft
Windchill 30 °F
Dew Point 25 °F
Humidity 57%
Rainfall 0.00 in
Snow Depth Not available.
7:23 AM 6:04 PM
Waning Crescent, 32% visible
METAR KBTM 201753Z AUTO 19015G20KT 10SM SCT090 04/M04 A2969 RMK AO2 SLP064 T00391039 10039 21044 55015
Pressure 29.72 in
Visibility 10.0 miles
Clouds Scattered Clouds 9000 ft
Windchill 30 °F
Dew Point 25 °F
Humidity 57%
Rainfall 0.00 in
Snow Depth Not available.
7:23 AM 6:04 PM
Waning Crescent, 32% visible
METAR KBTM 201753Z AUTO 19015G20KT 10SM SCT090 04/M04 A2969 RMK AO2 SLP064 T00391039 10039 21044 55015

Get Your Daily Forecast Email!

Thanks for signing up!

Be on the lookout for a verification email in your inbox.

You'll start receiving the daily forecast at 8 AM.

×

10-Day Weather Forecast

Almanac

Astronomy

Feb. 20, 2017 Rise Set
Actual Time
Civil Twilight
Nautical Twilight
Astronomical Twilight
Moon
Length of Visible Light
Length of Day
Tomorrow will be .
, % of the Moon is Illuminated

Today's Extremes

State Highs State Lows

Community

WunderPhotos

Upload Photos

1,962,540 photos uploaded!

WunderBlog® & News

Nearby

Air Quality

  Air Quality AQ Index Pollutant
Not available.

Snow Depth

Station Depth Elevation

Earthquake Activity

City Distance Mag. Time & Date
Minimum magnitude displayed is 2.5.

Coastal Water Temperatures

Place Temperature

Stations

Nearby Weather Stations

Station Location Temp. Windchill Dew Point Humidity Wind Precip. Elev Updated Type
                   

Watches & Warnings

There are currently no watches in effect.